sensor_id;sensor_type;location;lat;lon;timestamp;pressure;altitude;pressure_sealevel;temperature;humidity
21504;BME280;10913;51.992;9.228;2022-08-03T00:01:16;100322.91;;;20.82;91.66
21504;BME280;10913;51.992;9.228;2022-08-03T00:03:41;100317.84;;;20.76;91.59
21504;BME280;10913;51.992;9.228;2022-08-03T00:06:07;100322.50;;;20.73;91.44
21504;BME280;10913;51.992;9.228;2022-08-03T00:08:32;100321.78;;;20.69;92.10
21504;BME280;10913;51.992;9.228;2022-08-03T00:10:58;100316.47;;;20.68;91.70
21504;BME280;10913;51.992;9.228;2022-08-03T00:13:24;100314.81;;;20.65;92.18
21504;BME280;10913;51.992;9.228;2022-08-03T00:15:49;100315.66;;;20.66;91.71
21504;BME280;10913;51.992;9.228;2022-08-03T00:18:15;100318.50;;;20.62;91.93
21504;BME280;10913;51.992;9.228;2022-08-03T00:20:40;100315.00;;;20.60;92.01
21504;BME280;10913;51.992;9.228;2022-08-03T00:23:06;100312.56;;;20.56;92.43
21504;BME280;10913;51.992;9.228;2022-08-03T00:25:33;100309.09;;;20.54;92.52
21504;BME280;10913;51.992;9.228;2022-08-03T00:27:58;100307.56;;;20.48;92.75
21504;BME280;10913;51.992;9.228;2022-08-03T00:30:24;100313.94;;;20.46;92.87
21504;BME280;10913;51.992;9.228;2022-08-03T00:32:49;100314.06;;;20.43;92.94
21504;BME280;10913;51.992;9.228;2022-08-03T00:35:14;100310.53;;;20.42;92.99
21504;BME280;10913;51.992;9.228;2022-08-03T00:37:40;100309.72;;;20.40;92.74
21504;BME280;10913;51.992;9.228;2022-08-03T00:40:06;100310.75;;;20.38;92.93
21504;BME280;10913;51.992;9.228;2022-08-03T00:42:31;100310.00;;;20.34;92.98
21504;BME280;10913;51.992;9.228;2022-08-03T00:44:57;100313.69;;;20.32;93.12
21504;BME280;10913;51.992;9.228;2022-08-03T00:47:22;100312.16;;;20.26;93.00
21504;BME280;10913;51.992;9.228;2022-08-03T00:49:47;100311.41;;;20.22;93.08
21504;BME280;10913;51.992;9.228;2022-08-03T00:52:14;100309.03;;;20.16;93.36
21504;BME280;10913;51.992;9.228;2022-08-03T00:54:40;100305.56;;;20.14;93.36
21504;BME280;10913;51.992;9.228;2022-08-03T00:57:07;100300.25;;;20.13;93.62
21504;BME280;10913;51.992;9.228;2022-08-03T00:59:32;100295.91;;;20.10;93.56
21504;BME280;10913;51.992;9.228;2022-08-03T01:01:58;100298.56;;;20.10;93.37
21504;BME280;10913;51.992;9.228;2022-08-03T01:04:24;100298.66;;;20.09;93.70
21504;BME280;10913;51.992;9.228;2022-08-03T01:10:09;100297.03;;;20.05;93.65
21504;BME280;10913;51.992;9.228;2022-08-03T01:12:43;100296.38;;;20.00;94.18
21504;BME280;10913;51.992;9.228;2022-08-03T01:18:12;100293.25;;;19.90;94.52
21504;BME280;10913;51.992;9.228;2022-08-03T01:20:42;100296.13;;;19.85;95.21
21504;BME280;10913;51.992;9.228;2022-08-03T01:25:54;100296.31;;;19.81;95.22
21504;BME280;10913;51.992;9.228;2022-08-03T01:31:41;100285.91;;;19.75;95.17
21504;BME280;10913;51.992;9.228;2022-08-03T01:34:10;100286.09;;;19.70;95.15
21504;BME280;10913;51.992;9.228;2022-08-03T01:36:42;100297.81;;;19.68;95.00
21504;BME280;10913;51.992;9.228;2022-08-03T01:39:09;100297.94;;;19.65;95.26
21504;BME280;10913;51.992;9.228;2022-08-03T01:41:48;100298.09;;;19.61;95.46
21504;BME280;10913;51.992;9.228;2022-08-03T01:44:15;100293.66;;;19.60;95.43
21504;BME280;10913;51.992;9.228;2022-08-03T01:46:41;100298.22;;;19.58;95.28
21504;BME280;10913;51.992;9.228;2022-08-03T01:49:10;100299.25;;;19.56;95.78
21504;BME280;10913;51.992;9.228;2022-08-03T01:51:37;100295.81;;;19.52;95.53
21504;BME280;10913;51.992;9.228;2022-08-03T01:54:04;100294.13;;;19.50;95.72
21504;BME280;10913;51.992;9.228;2022-08-03T01:56:31;100294.13;;;19.50;95.60
21504;BME280;10913;51.992;9.228;2022-08-03T01:58:59;100297.72;;;19.49;95.82
21504;BME280;10913;51.992;9.228;2022-08-03T02:01:26;100295.09;;;19.47;95.70
21504;BME280;10913;51.992;9.228;2022-08-03T02:03:53;100292.50;;;19.46;95.69
21504;BME280;10913;51.992;9.228;2022-08-03T02:06:21;100294.25;;;19.47;95.87
21504;BME280;10913;51.992;9.228;2022-08-03T02:08:47;100297.03;;;19.44;95.83
21504;BME280;10913;51.992;9.228;2022-08-03T02:11:15;100301.59;;;19.42;96.18
21504;BME280;10913;51.992;9.228;2022-08-03T02:13:42;100295.53;;;19.38;96.08
21504;BME280;10913;51.992;9.228;2022-08-03T02:16:09;100293.78;;;19.37;96.08
21504;BME280;10913;51.992;9.228;2022-08-03T02:18:36;100294.72;;;19.36;95.82
21504;BME280;10913;51.992;9.228;2022-08-03T02:21:06;100296.59;;;19.34;95.73
21504;BME280;10913;51.992;9.228;2022-08-03T02:23:32;100293.09;;;19.32;96.09
21504;BME280;10913;51.992;9.228;2022-08-03T02:26:00;100295.03;;;19.28;95.98
21504;BME280;10913;51.992;9.228;2022-08-03T02:28:31;100290.66;;;19.26;96.31
21504;BME280;10913;51.992;9.228;2022-08-03T02:31:02;100286.31;;;19.23;96.17
21504;BME280;10913;51.992;9.228;2022-08-03T02:33:36;100284.69;;;19.19;96.33
21504;BME280;10913;51.992;9.228;2022-08-03T02:36:03;100282.09;;;19.18;96.10
21504;BME280;10913;51.992;9.228;2022-08-03T02:38:35;100281.34;;;19.14;96.26
21504;BME280;10913;51.992;9.228;2022-08-03T02:41:04;100281.47;;;19.11;96.64
21504;BME280;10913;51.992;9.228;2022-08-03T02:43:34;100279.00;;;19.07;96.71
21504;BME280;10913;51.992;9.228;2022-08-03T02:46:00;100279.09;;;19.04;96.85
21504;BME280;10913;51.992;9.228;2022-08-03T02:48:27;100277.44;;;19.01;96.99
21504;BME280;10913;51.992;9.228;2022-08-03T02:50:57;100269.47;;;19.00;97.12
21504;BME280;10913;51.992;9.228;2022-08-03T02:53:23;100275.75;;;18.99;97.32
21504;BME280;10913;51.992;9.228;2022-08-03T02:55:52;100268.69;;;18.98;96.99
21504;BME280;10913;51.992;9.228;2022-08-03T02:58:20;100275.91;;;18.96;97.22
21504;BME280;10913;51.992;9.228;2022-08-03T03:00:49;100275.09;;;18.93;97.56
21504;BME280;10913;51.992;9.228;2022-08-03T03:03:18;100273.34;;;18.92;97.01
21504;BME280;10913;51.992;9.228;2022-08-03T03:05:45;100277.06;;;18.88;97.37
21504;BME280;10913;51.992;9.228;2022-08-03T03:08:13;100276.25;;;18.86;97.18
21504;BME280;10913;51.992;9.228;2022-08-03T03:10:40;100274.63;;;18.82;97.83
21504;BME280;10913;51.992;9.228;2022-08-03T03:13:06;100269.41;;;18.79;97.95
21504;BME280;10913;51.992;9.228;2022-08-03T03:15:34;100274.03;;;18.76;98.14
21504;BME280;10913;51.992;9.228;2022-08-03T03:18:01;100282.13;;;18.74;98.15
21504;BME280;10913;51.992;9.228;2022-08-03T03:20:28;100275.97;;;18.72;98.21
21504;BME280;10913;51.992;9.228;2022-08-03T03:22:54;100284.13;;;18.69;98.50
21504;BME280;10913;51.992;9.228;2022-08-03T03:25:20;100281.50;;;18.68;98.29
21504;BME280;10913;51.992;9.228;2022-08-03T03:27:46;100282.38;;;18.68;98.38
21504;BME280;10913;51.992;9.228;2022-08-03T03:30:13;100280.63;;;18.67;98.49
21504;BME280;10913;51.992;9.228;2022-08-03T03:32:38;100281.56;;;18.66;98.46
21504;BME280;10913;51.992;9.228;2022-08-03T03:35:05;100280.75;;;18.64;98.39
21504;BME280;10913;51.992;9.228;2022-08-03T03:37:31;100279.94;;;18.62;98.48
21504;BME280;10913;51.992;9.228;2022-08-03T03:39:57;100282.72;;;18.59;98.73
21504;BME280;10913;51.992;9.228;2022-08-03T03:42:24;100273.94;;;18.55;98.72
21504;BME280;10913;51.992;9.228;2022-08-03T03:44:49;100280.22;;;18.54;99.09
21504;BME280;10913;51.992;9.228;2022-08-03T03:47:15;100279.34;;;18.54;98.66
21504;BME280;10913;51.992;9.228;2022-08-03T03:49:41;100276.66;;;18.54;98.72
21504;BME280;10913;51.992;9.228;2022-08-03T03:52:07;100281.22;;;18.52;98.33
21504;BME280;10913;51.992;9.228;2022-08-03T03:54:43;100277.59;;;18.53;98.52
21504;BME280;10913;51.992;9.228;2022-08-03T03:57:09;100276.78;;;18.51;98.79
21504;BME280;10913;51.992;9.228;2022-08-03T03:59:40;100281.31;;;18.49;98.81
21504;BME280;10913;51.992;9.228;2022-08-03T04:02:06;100279.63;;;18.46;99.05
21504;BME280;10913;51.992;9.228;2022-08-03T04:04:33;100276.91;;;18.48;98.85
21504;BME280;10913;51.992;9.228;2022-08-03T04:07:18;100280.50;;;18.47;98.67
21504;BME280;10913;51.992;9.228;2022-08-03T04:10:07;100278.88;;;18.43;98.96
21504;BME280;10913;51.992;9.228;2022-08-03T04:12:55;100287.91;;;18.40;98.81
21504;BME280;10913;51.992;9.228;2022-08-03T04:15:24;100288.75;;;18.41;99.38
21504;BME280;10913;51.992;9.228;2022-08-03T04:17:52;100296.78;;;18.41;99.63
21504;BME280;10913;51.992;9.228;2022-08-03T04:20:20;100289.69;;;18.40;99.37
21504;BME280;10913;51.992;9.228;2022-08-03T04:22:48;100290.56;;;18.40;99.27
21504;BME280;10913;51.992;9.228;2022-08-03T04:25:17;100285.16;;;18.42;99.38
21504;BME280;10913;51.992;9.228;2022-08-03T04:27:45;100293.13;;;18.43;99.29
21504;BME280;10913;51.992;9.228;2022-08-03T04:30:13;100295.75;;;18.45;99.88
21504;BME280;10913;51.992;9.228;2022-08-03T04:32:39;100297.59;;;18.43;100.00
21504;BME280;10913;51.992;9.228;2022-08-03T04:35:06;100295.75;;;18.45;100.00
21504;BME280;10913;51.992;9.228;2022-08-03T04:37:42;100300.06;;;18.49;99.75
21504;BME280;10913;51.992;9.228;2022-08-03T04:40:12;100295.53;;;18.51;99.96
21504;BME280;10913;51.992;9.228;2022-08-03T04:42:39;100302.56;;;18.53;99.82
21504;BME280;10913;51.992;9.228;2022-08-03T04:45:07;100299.78;;;18.56;99.93
21504;BME280;10913;51.992;9.228;2022-08-03T04:47:36;100303.22;;;18.58;99.76
21504;BME280;10913;51.992;9.228;2022-08-03T04:50:04;100308.56;;;18.60;100.00
21504;BME280;10913;51.992;9.228;2022-08-03T04:52:30;100320.06;;;18.62;100.00
21504;BME280;10913;51.992;9.228;2022-08-03T04:54:56;100320.06;;;18.62;100.00
21504;BME280;10913;51.992;9.228;2022-08-03T04:57:22;100312.75;;;18.67;100.00
21504;BME280;10913;51.992;9.228;2022-08-03T04:59:47;100310.81;;;18.71;99.64
21504;BME280;10913;51.992;9.228;2022-08-03T05:02:17;100319.59;;;18.74;99.46
21504;BME280;10913;51.992;9.228;2022-08-03T05:04:42;100315.06;;;18.76;99.67
21504;BME280;10913;51.992;9.228;2022-08-03T05:07:11;100317.59;;;18.79;99.78
21504;BME280;10913;51.992;9.228;2022-08-03T05:09:36;100317.47;;;18.82;99.81
21504;BME280;10913;51.992;9.228;2022-08-03T05:12:03;100311.13;;;18.85;99.93
21504;BME280;10913;51.992;9.228;2022-08-03T05:14:29;100318.16;;;18.87;100.00
21504;BME280;10913;51.992;9.228;2022-08-03T05:16:54;100320.72;;;18.90;100.00
21504;BME280;10913;51.992;9.228;2022-08-03T05:19:19;100313.50;;;18.92;99.95
21504;BME280;10913;51.992;9.228;2022-08-03T05:21:45;100311.63;;;18.95;99.68
21504;BME280;10913;51.992;9.228;2022-08-03T05:24:10;100314.09;;;18.99;99.57
21504;BME280;10913;51.992;9.228;2022-08-03T05:26:36;100314.75;;;19.06;99.34
21504;BME280;10913;51.992;9.228;2022-08-03T05:29:01;100310.00;;;19.12;98.82
21504;BME280;10913;51.992;9.228;2022-08-03T05:31:26;100308.72;;;19.21;99.11
21504;BME280;10913;51.992;9.228;2022-08-03T05:33:52;100306.63;;;19.29;99.11
21504;BME280;10913;51.992;9.228;2022-08-03T05:36:18;100298.25;;;19.37;99.04
21504;BME280;10913;51.992;9.228;2022-08-03T05:38:44;100306.81;;;19.45;98.73
21504;BME280;10913;51.992;9.228;2022-08-03T05:41:09;100299.44;;;19.51;97.79
21504;BME280;10913;51.992;9.228;2022-08-03T05:43:34;100299.19;;;19.57;98.13
21504;BME280;10913;51.992;9.228;2022-08-03T05:46:00;100297.94;;;19.65;97.74
21504;BME280;10913;51.992;9.228;2022-08-03T05:48:25;100298.56;;;19.71;97.96
21504;BME280;10913;51.992;9.228;2022-08-03T05:50:51;100293.81;;;19.78;100.00
21504;BME280;10913;51.992;9.228;2022-08-03T05:53:16;100294.53;;;19.81;100.00
21504;BME280;10913;51.992;9.228;2022-08-03T05:55:41;100298.88;;;19.84;100.00
21504;BME280;10913;51.992;9.228;2022-08-03T05:58:07;100300.41;;;19.89;100.00
21504;BME280;10913;51.992;9.228;2022-08-03T06:00:32;100302.03;;;19.93;99.93
21504;BME280;10913;51.992;9.228;2022-08-03T06:02:58;100308.84;;;20.01;97.94
21504;BME280;10913;51.992;9.228;2022-08-03T06:05:23;100308.50;;;20.08;98.63
21504;BME280;10913;51.992;9.228;2022-08-03T06:07:51;100298.44;;;20.13;97.62
21504;BME280;10913;51.992;9.228;2022-08-03T06:10:17;100305.97;;;20.24;97.23
21504;BME280;10913;51.992;9.228;2022-08-03T06:12:43;100301.06;;;20.34;97.26
21504;BME280;10913;51.992;9.228;2022-08-03T06:15:11;100293.47;;;20.43;97.99
21504;BME280;10913;51.992;9.228;2022-08-03T06:17:47;100298.41;;;20.52;98.12
21504;BME280;10913;51.992;9.228;2022-08-03T06:20:15;100307.69;;;20.64;97.75
21504;BME280;10913;51.992;9.228;2022-08-03T06:22:41;100302.63;;;20.77;97.72
21504;BME280;10913;51.992;9.228;2022-08-03T06:25:06;100299.25;;;20.90;98.03
21504;BME280;10913;51.992;9.228;2022-08-03T06:27:32;100310.25;;;21.03;98.48
21504;BME280;10913;51.992;9.228;2022-08-03T06:29:57;100296.16;;;21.17;98.28
21504;BME280;10913;51.992;9.228;2022-08-03T06:32:23;100303.47;;;21.32;97.52
21504;BME280;10913;51.992;9.228;2022-08-03T06:34:48;100291.13;;;21.45;97.29
21504;BME280;10913;51.992;9.228;2022-08-03T06:37:13;100296.91;;;21.55;95.71
21504;BME280;10913;51.992;9.228;2022-08-03T06:39:39;100298.38;;;21.60;91.68
21504;BME280;10913;51.992;9.228;2022-08-03T06:42:04;100296.16;;;21.69;90.77
21504;BME280;10913;51.992;9.228;2022-08-03T06:44:30;100305.66;;;21.76;90.74
21504;BME280;10913;51.992;9.228;2022-08-03T06:46:55;100304.22;;;21.86;90.94
21504;BME280;10913;51.992;9.228;2022-08-03T06:49:21;100301.06;;;21.95;90.12
21504;BME280;10913;51.992;9.228;2022-08-03T06:51:46;100304.22;;;22.03;89.06
21504;BME280;10913;51.992;9.228;2022-08-03T06:54:11;100308.25;;;22.12;88.21
21504;BME280;10913;51.992;9.228;2022-08-03T06:56:37;100305.81;;;22.23;89.08
21504;BME280;10913;51.992;9.228;2022-08-03T06:59:02;100313.41;;;22.32;89.11
21504;BME280;10913;51.992;9.228;2022-08-03T07:01:28;100318.19;;;22.43;88.37
21504;BME280;10913;51.992;9.228;2022-08-03T07:03:53;100310.47;;;22.52;87.63
21504;BME280;10913;51.992;9.228;2022-08-03T07:06:20;100307.97;;;22.65;87.70
21504;BME280;10913;51.992;9.228;2022-08-03T07:08:45;100307.47;;;22.74;88.46
21504;BME280;10913;51.992;9.228;2022-08-03T07:11:11;100305.13;;;22.84;88.64
21504;BME280;10913;51.992;9.228;2022-08-03T07:13:36;100319.72;;;22.95;86.89
21504;BME280;10913;51.992;9.228;2022-08-03T07:16:02;100308.31;;;23.06;87.32
21504;BME280;10913;51.992;9.228;2022-08-03T07:18:27;100307.59;;;23.18;88.01
21504;BME280;10913;51.992;9.228;2022-08-03T07:20:52;100313.16;;;23.31;85.27
21504;BME280;10913;51.992;9.228;2022-08-03T07:23:18;100304.94;;;23.48;84.79
21504;BME280;10913;51.992;9.228;2022-08-03T07:25:43;100300.47;;;23.63;85.00
21504;BME280;10913;51.992;9.228;2022-08-03T07:28:09;100306.88;;;23.76;85.55
21504;BME280;10913;51.992;9.228;2022-08-03T07:30:34;100301.38;;;23.92;85.57
21504;BME280;10913;51.992;9.228;2022-08-03T07:33:00;100303.31;;;24.04;83.36
21504;BME280;10913;51.992;9.228;2022-08-03T07:35:25;100299.88;;;24.16;81.88
21504;BME280;10913;51.992;9.228;2022-08-03T07:37:54;100303.56;;;24.29;82.43
21504;BME280;10913;51.992;9.228;2022-08-03T07:40:19;100310.47;;;24.48;81.99
21504;BME280;10913;51.992;9.228;2022-08-03T07:42:45;100308.53;;;24.64;81.13
21504;BME280;10913;51.992;9.228;2022-08-03T07:45:10;100302.97;;;24.80;80.75
21504;BME280;10913;51.992;9.228;2022-08-03T07:47:35;100302.38;;;25.03;78.50
21504;BME280;10913;51.992;9.228;2022-08-03T07:50:01;100299.97;;;25.38;79.53
21504;BME280;10913;51.992;9.228;2022-08-03T07:52:26;100296.44;;;25.90;75.11
21504;BME280;10913;51.992;9.228;2022-08-03T07:55:10;100289.53;;;26.73;72.90
21504;BME280;10913;51.992;9.228;2022-08-03T07:57:36;100294.53;;;27.97;70.82
21504;BME280;10913;51.992;9.228;2022-08-03T08:00:07;100292.50;;;29.95;66.75
21504;BME280;10913;51.992;9.228;2022-08-03T08:02:36;100288.63;;;31.08;63.47
21504;BME280;10913;51.992;9.228;2022-08-03T08:05:01;100294.56;;;31.13;62.84
21504;BME280;10913;51.992;9.228;2022-08-03T08:07:27;100299.38;;;30.91;63.10
21504;BME280;10913;51.992;9.228;2022-08-03T08:09:52;100298.47;;;30.80;64.19
21504;BME280;10913;51.992;9.228;2022-08-03T08:12:18;100288.81;;;30.57;63.40
21504;BME280;10913;51.992;9.228;2022-08-03T08:14:43;100288.09;;;30.55;64.04
21504;BME280;10913;51.992;9.228;2022-08-03T08:17:11;100287.47;;;30.52;63.82
21504;BME280;10913;51.992;9.228;2022-08-03T08:19:36;100291.00;;;30.42;64.31
21504;BME280;10913;51.992;9.228;2022-08-03T08:22:02;100292.63;;;30.14;64.50
21504;BME280;10913;51.992;9.228;2022-08-03T08:24:27;100287.44;;;29.91;65.67
21504;BME280;10913;51.992;9.228;2022-08-03T08:26:55;100283.75;;;29.80;66.16
21504;BME280;10913;51.992;9.228;2022-08-03T08:29:20;100285.84;;;29.67;65.64
21504;BME280;10913;51.992;9.228;2022-08-03T08:31:48;100273.88;;;29.59;65.56
21504;BME280;10913;51.992;9.228;2022-08-03T08:34:16;100281.34;;;29.57;65.26
21504;BME280;10913;51.992;9.228;2022-08-03T08:36:42;100273.09;;;29.68;65.50
21504;BME280;10913;51.992;9.228;2022-08-03T08:39:07;100277.31;;;29.81;66.06
21504;BME280;10913;51.992;9.228;2022-08-03T08:41:32;100268.34;;;29.91;65.54
21504;BME280;10913;51.992;9.228;2022-08-03T08:43:59;100270.50;;;30.08;63.79
21504;BME280;10913;51.992;9.228;2022-08-03T08:46:25;100265.63;;;30.11;62.59
21504;BME280;10913;51.992;9.228;2022-08-03T08:48:52;100261.94;;;30.22;61.39
21504;BME280;10913;51.992;9.228;2022-08-03T08:51:20;100275.22;;;30.36;61.89
21504;BME280;10913;51.992;9.228;2022-08-03T08:53:48;100270.66;;;30.46;60.58
21504;BME280;10913;51.992;9.228;2022-08-03T08:56:15;100273.16;;;30.59;59.67
21504;BME280;10913;51.992;9.228;2022-08-03T08:58:46;100273.78;;;30.82;60.69
21504;BME280;10913;51.992;9.228;2022-08-03T09:01:13;100269.91;;;30.75;58.88
21504;BME280;10913;51.992;9.228;2022-08-03T09:03:38;100271.06;;;30.82;59.02
21504;BME280;10913;51.992;9.228;2022-08-03T09:06:04;100273.69;;;30.93;58.78
21504;BME280;10913;51.992;9.228;2022-08-03T09:08:31;100267.63;;;30.99;59.72
21504;BME280;10913;51.992;9.228;2022-08-03T09:10:58;100271.41;;;31.08;58.45
21504;BME280;10913;51.992;9.228;2022-08-03T09:13:24;100266.06;;;31.06;58.42
21504;BME280;10913;51.992;9.228;2022-08-03T09:16:08;100274.59;;;31.23;58.60
21504;BME280;10913;51.992;9.228;2022-08-03T09:18:34;100265.69;;;31.40;58.76
21504;BME280;10913;51.992;9.228;2022-08-03T09:21:22;100257.59;;;31.58;58.35
21504;BME280;10913;51.992;9.228;2022-08-03T09:23:56;100265.84;;;31.67;58.29
21504;BME280;10913;51.992;9.228;2022-08-03T09:26:28;100263.97;;;31.77;57.69
21504;BME280;10913;51.992;9.228;2022-08-03T09:28:58;100267.09;;;31.82;56.75
21504;BME280;10913;51.992;9.228;2022-08-03T09:31:42;100261.84;;;31.99;57.86
21504;BME280;10913;51.992;9.228;2022-08-03T09:34:13;100262.41;;;32.12;56.79
21504;BME280;10913;51.992;9.228;2022-08-03T09:36:47;100264.84;;;32.25;56.49
21504;BME280;10913;51.992;9.228;2022-08-03T09:39:20;100255.94;;;32.13;56.09
21504;BME280;10913;51.992;9.228;2022-08-03T09:41:48;100266.31;;;32.00;56.38
21504;BME280;10913;51.992;9.228;2022-08-03T09:44:15;100261.69;;;32.10;56.94
21504;BME280;10913;51.992;9.228;2022-08-03T09:46:54;100259.06;;;32.28;56.88
21504;BME280;10913;51.992;9.228;2022-08-03T09:49:20;100255.97;;;32.40;56.25
21504;BME280;10913;51.992;9.228;2022-08-03T09:51:46;100253.56;;;32.37;55.24
21504;BME280;10913;51.992;9.228;2022-08-03T09:54:12;100245.72;;;32.05;55.99
21504;BME280;10913;51.992;9.228;2022-08-03T09:56:49;100252.31;;;31.75;56.49
21504;BME280;10913;51.992;9.228;2022-08-03T09:59:29;100252.41;;;31.83;58.32
21504;BME280;10913;51.992;9.228;2022-08-03T10:01:55;100251.78;;;31.99;57.40
21504;BME280;10913;51.992;9.228;2022-08-03T10:04:21;100255.19;;;32.30;58.38
21504;BME280;10913;51.992;9.228;2022-08-03T10:07:06;100256.81;;;32.50;56.47
21504;BME280;10913;51.992;9.228;2022-08-03T10:09:33;100247.06;;;32.38;56.11
21504;BME280;10913;51.992;9.228;2022-08-03T10:12:10;100238.53;;;32.14;55.86
21504;BME280;10913;51.992;9.228;2022-08-03T10:14:40;100250.03;;;32.08;57.11
21504;BME280;10913;51.992;9.228;2022-08-03T10:17:10;100245.38;;;32.18;57.35
21504;BME280;10913;51.992;9.228;2022-08-03T10:19:36;100247.97;;;32.29;56.12
21504;BME280;10913;51.992;9.228;2022-08-03T10:22:22;100238.47;;;32.33;56.01
21504;BME280;10913;51.992;9.228;2022-08-03T10:24:54;100239.56;;;32.40;56.41
21504;BME280;10913;51.992;9.228;2022-08-03T10:27:24;100240.66;;;32.57;56.79
21504;BME280;10913;51.992;9.228;2022-08-03T10:29:55;100228.41;;;32.79;56.72
21504;BME280;10913;51.992;9.228;2022-08-03T10:34:53;100234.44;;;33.18;56.06
21504;BME280;10913;51.992;9.228;2022-08-03T10:37:24;100225.41;;;33.35;53.87
21504;BME280;10913;51.992;9.228;2022-08-03T10:39:53;100215.31;;;33.36;54.38
21504;BME280;10913;51.992;9.228;2022-08-03T10:42:20;100222.25;;;33.48;53.45
21504;BME280;10913;51.992;9.228;2022-08-03T10:44:52;100212.75;;;33.60;54.13
21504;BME280;10913;51.992;9.228;2022-08-03T10:47:20;100218.06;;;33.62;51.79
21504;BME280;10913;51.992;9.228;2022-08-03T10:49:48;100214.97;;;33.57;53.17
21504;BME280;10913;51.992;9.228;2022-08-03T10:52:14;100221.97;;;33.59;54.08
21504;BME280;10913;51.992;9.228;2022-08-03T10:54:43;100208.88;;;33.45;52.35
21504;BME280;10913;51.992;9.228;2022-08-03T10:57:43;100209.31;;;33.58;54.10
21504;BME280;10913;51.992;9.228;2022-08-03T11:00:10;100207.09;;;33.79;53.59
21504;BME280;10913;51.992;9.228;2022-08-03T11:03:08;100201.34;;;33.91;53.61
21504;BME280;10913;51.992;9.228;2022-08-03T11:05:52;100204.50;;;33.78;52.35
21504;BME280;10913;51.992;9.228;2022-08-03T11:08:32;100195.44;;;33.77;52.90
21504;BME280;10913;51.992;9.228;2022-08-03T11:14:19;100193.78;;;33.67;51.45
21504;BME280;10913;51.992;9.228;2022-08-03T11:16:50;100191.81;;;33.77;52.25
21504;BME280;10913;51.992;9.228;2022-08-03T11:19:50;100203.44;;;33.97;52.61
21504;BME280;10913;51.992;9.228;2022-08-03T11:22:17;100194.91;;;34.08;53.26
21504;BME280;10913;51.992;9.228;2022-08-03T11:43:07;100199.28;;;34.69;53.14
21504;BME280;10913;51.992;9.228;2022-08-03T11:45:33;100190.25;;;34.84;52.40
21504;BME280;10913;51.992;9.228;2022-08-03T11:48:11;100192.13;;;34.84;51.39
21504;BME280;10913;51.992;9.228;2022-08-03T11:50:38;100193.44;;;34.64;51.35
21504;BME280;10913;51.992;9.228;2022-08-03T11:53:06;100185.50;;;34.44;51.20
21504;BME280;10913;51.992;9.228;2022-08-03T11:55:31;100183.84;;;34.26;51.64
21504;BME280;10913;51.992;9.228;2022-08-03T11:58:00;100194.97;;;34.16;52.21
21504;BME280;10913;51.992;9.228;2022-08-03T12:00:30;100197.28;;;34.03;52.59
21504;BME280;10913;51.992;9.228;2022-08-03T12:03:00;100195.56;;;34.02;52.64
21504;BME280;10913;51.992;9.228;2022-08-03T12:05:37;100187.16;;;33.95;52.76
21504;BME280;10913;51.992;9.228;2022-08-03T12:08:03;100189.72;;;33.97;53.66
21504;BME280;10913;51.992;9.228;2022-08-03T12:10:28;100194.53;;;34.03;52.74
21504;BME280;10913;51.992;9.228;2022-08-03T12:12:55;100186.03;;;34.14;51.77
21504;BME280;10913;51.992;9.228;2022-08-03T12:15:29;100178.53;;;34.24;52.63
21504;BME280;10913;51.992;9.228;2022-08-03T12:17:56;100179.19;;;34.18;52.75
21504;BME280;10913;51.992;9.228;2022-08-03T12:20:25;100184.34;;;34.21;52.84
21504;BME280;10913;51.992;9.228;2022-08-03T12:22:50;100183.69;;;34.27;52.65
21504;BME280;10913;51.992;9.228;2022-08-03T12:25:24;100179.63;;;34.39;52.46
21504;BME280;10913;51.992;9.228;2022-08-03T12:27:52;100175.38;;;34.45;52.29
21504;BME280;10913;51.992;9.228;2022-08-03T12:30:18;100169.38;;;34.49;51.88
21504;BME280;10913;51.992;9.228;2022-08-03T12:32:44;100171.81;;;34.61;51.61
21504;BME280;10913;51.992;9.228;2022-08-03T12:35:20;100163.75;;;34.67;49.78
21504;BME280;10913;51.992;9.228;2022-08-03T12:37:48;100166.19;;;34.70;48.88
21504;BME280;10913;51.992;9.228;2022-08-03T12:40:13;100171.31;;;34.65;48.44
21504;BME280;10913;51.992;9.228;2022-08-03T12:42:40;100168.00;;;34.37;48.22
21504;BME280;10913;51.992;9.228;2022-08-03T12:45:21;100165.50;;;34.26;48.72
21504;BME280;10913;51.992;9.228;2022-08-03T12:47:59;100173.56;;;34.28;50.44
21504;BME280;10913;51.992;9.228;2022-08-03T12:52:54;100168.66;;;34.39;51.62
21504;BME280;10913;51.992;9.228;2022-08-03T12:55:21;100174.50;;;34.44;50.53
21504;BME280;10913;51.992;9.228;2022-08-03T12:57:47;100159.94;;;34.44;51.61
21504;BME280;10913;51.992;9.228;2022-08-03T13:00:14;100157.38;;;34.50;51.85
21504;BME280;10913;51.992;9.228;2022-08-03T13:02:40;100165.06;;;34.39;47.74
21504;BME280;10913;51.992;9.228;2022-08-03T13:05:10;100173.28;;;34.39;48.32
21504;BME280;10913;51.992;9.228;2022-08-03T13:07:43;100162.34;;;34.47;49.38
21504;BME280;10913;51.992;9.228;2022-08-03T13:10:10;100170.09;;;34.60;50.76
21504;BME280;10913;51.992;9.228;2022-08-03T13:12:46;100160.53;;;34.72;50.84
21504;BME280;10913;51.992;9.228;2022-08-03T13:15:12;100164.69;;;34.84;50.75
21504;BME280;10913;51.992;9.228;2022-08-03T13:17:38;100168.81;;;34.96;50.62
21504;BME280;10913;51.992;9.228;2022-08-03T13:20:04;100166.75;;;34.98;48.43
21504;BME280;10913;51.992;9.228;2022-08-03T13:22:29;100157.47;;;34.99;48.24
21504;BME280;10913;51.992;9.228;2022-08-03T13:24:57;100155.78;;;35.06;49.03
21504;BME280;10913;51.992;9.228;2022-08-03T13:27:23;100166.22;;;35.03;47.74
21504;BME280;10913;51.992;9.228;2022-08-03T13:29:49;100156.78;;;35.05;47.75
21504;BME280;10913;51.992;9.228;2022-08-03T13:32:15;100153.03;;;35.06;48.94
21504;BME280;10913;51.992;9.228;2022-08-03T13:34:40;100160.59;;;35.12;49.48